Nearby Airport METAR Reports

 

KVSF - Springfield, Vermont, USA
Distance from station: WSW 8mi, 12km
Updated: 3:54am
Overcast
Overcast
 Wind from varies
Wind: varies 6 mph , 9 km/h
Temperature: 72°F , 22°C
Dew Point: 63°F , 17°C
Humidity: 73%
Barometer: 29.71 inHg , 1006.1 hPa
Clouds: Overcast
Visibility: 10 miles , 16 km
Cloud details: Few Clouds 3900 ft
Overcast 8500 ft
2018/06/19 07:54 KVSF 190754Z AUTO VRB05KT 10SM FEW039 OVC085 22/17 A2971 RMK AO2 SLP057 T02220167
KLEB - Lebanon, New Hampshire, USA
Distance from station: N 18mi, 29km
Updated: 3:53am
Overcast
Overcast
 Wind from N
Wind: N 6 mph , 9 km/h
Temperature: 70°F , 21°C
Dew Point: 63°F , 17°C
Humidity: 78%
Barometer: 29.70 inHg , 1005.8 hPa
Clouds: Overcast
Visibility: 10 miles , 16 km
Cloud details: Partly cloudy 6000 ft
Overcast 8000 ft
2018/06/19 07:53 KLEB 190753Z AUTO 35005KT 10SM SCT060 OVC080 21/17 A2970 RMK AO2 SLP046 T02060172
KRUT - Rutland State, Vermont, USA
Distance from station: WNW 31mi, 50km
Updated: 3:56am
Overcast
Overcast
 Wind from NNW
Wind: NNW 9 mph , 15 km/h
Temperature: 66°F , 19°C
Dew Point: 64°F , 18°C
Humidity: 94%
Barometer: 29.74 inHg , 1007.1 hPa
Clouds: Overcast
Visibility: 10 miles , 16 km
Cloud details: Partly cloudy 800 ft
Mostly cloudy 1200 ft
Overcast 2100 ft
2018/06/19 07:56 KRUT 190756Z AUTO 33008KT 10SM SCT008 BKN012 OVC021 19/18 A2974 RMK AO2 SLP078 T01890183 $
 
KEEN - Keene/Dillant, New Hampshire, USA
Distance from station: S 34mi, 55km
Updated: 3:56am

 
2018/06/19 07:56 KEEN 190756Z AUTO RMK AO2 SLPNO PWINO FZRANO $
K1P1 - Plymouth, New Hampshire, USA
Distance from station: NE 42mi, 67km
Updated: 4:15am
Clear
Clear
 Wind from WNW
Wind: WNW 12 mph , 19 km/h, Gust: 16 mph , 26 km/h
Temperature: 66°F , 19°C
Dew Point: 59°F , 15°C
Humidity: 78%
Barometer: 29.68 inHg , 1005.1 hPa
Clouds: Clear
2018/06/19 08:15 K1P1 190815Z AUTO 30010G14KT CLR 19/15 A2968 RMK AO2 T01930152 PWINO
KAFN - Jaffrey, New Hampshire, USA
Distance from station: SSE 44mi, 70km
Updated: 3:52am
Light rain, Overcast
Light rain, Overcast
 Wind from varies
Wind: varies 6 mph , 9 km/h, Gust: 18 mph , 30 km/h
Temperature: 72°F , 22°C
Dew Point: 68°F , 20°C
Humidity: 88%
Barometer: 29.70 inHg , 1005.8 hPa
Summary: Light rain
Clouds: Overcast
Visibility: 10 miles , 16 km
Cloud details: Few Clouds 1500 ft
Mostly cloudy 3200 ft
Overcast 4700 ft
2018/06/19 07:52 KAFN 190752Z AUTO VRB05G16KT 10SM -RA FEW015 BKN032 OVC047 22/20 A2970 RMK AO2 RAB12 SLP051 P0000 T02170200
 
KCON - Concord, New Hampshire, USA
Distance from station: ESE 45mi, 73km
Updated: 3:51am
Mostly cloudy
Mostly cloudy
 Wind from NNW
Wind: NNW 13 mph , 20 km/h
Temperature: 70°F , 21°C
Dew Point: 64°F , 18°C
Humidity: 83%
Barometer: 29.65 inHg , 1004.1 hPa
Clouds: Mostly cloudy
Visibility: 10 miles , 16 km
Cloud details: Mostly cloudy 9000 ft
2018/06/19 07:51 KCON 190751Z AUTO 33011KT 10SM BKN090 21/18 A2965 RMK AO2 RAE03 SLP037 P0000 T02110183 $
KLCI - Laconia Muni, New Hampshire, USA
Distance from station: ENE 49mi, 80km
Updated: 3:56am
Mostly cloudy
Mostly cloudy
 Wind from W
Wind: W 7 mph , 11 km/h
Temperature: 68°F , 20°C
Dew Point: 64°F , 18°C
Humidity: 88%
Barometer: 29.66 inHg , 1004.4 hPa
Clouds: Mostly cloudy
Visibility: 10 miles , 16 km
Cloud details: Mostly cloudy 10000 ft
2018/06/19 07:56 KLCI 190756Z AUTO 27006KT 10SM BKN100 20/18 A2966 RMK AO2 SLP053 T02000178
KDDH - Bennington, Vermont, USA
Distance from station: SW 55mi, 89km
Updated: 4:03am
Overcast
Overcast
 Wind from varies
Wind: varies 3 mph , 6 km/h
Temperature: 68°F , 20°C
Dew Point: 64°F , 18°C
Humidity: 88%
Barometer: 29.74 inHg , 1007.1 hPa
Clouds: Overcast
Visibility: 10 miles , 16 km
Cloud details: Partly cloudy 2000 ft
Overcast 3400 ft
2018/06/19 08:03 KDDH 190803Z AUTO VRB03KT 10SM SCT020 OVC034 20/18 A2974 RMK AO2 T02000178
 
K6B0 - Middlebury, Vermont, USA
Distance from station: NW 56mi, 90km
Updated: 3:55am
Partly cloudy
Partly cloudy
 Wind from N
Wind: N 10 mph , 17 km/h
Temperature: 64°F , 18°C
Dew Point: 63°F , 17°C
Humidity: 94%
Barometer: 29.76 inHg , 1007.8 hPa
Clouds: Partly cloudy
Visibility: 10 miles , 16 km
Cloud details: Partly cloudy 11000 ft
2018/06/19 07:55 K6B0 190755Z AUTO 36009KT 10SM SCT110 18/17 A2976 RMK AO2 T01830165
KMHT - Manchester, New Hampshire, USA
Distance from station: ESE 56mi, 90km
Updated: 3:53am
Mostly cloudy
Mostly cloudy
 Wind from NNW
Wind: NNW 7 mph , 11 km/h
Temperature: 75°F , 24°C
Dew Point: 70°F , 21°C
Humidity: 83%
Barometer: 29.63 inHg , 1003.4 hPa
Clouds: Mostly cloudy
Visibility: 10 miles , 16 km
Cloud details: Few Clouds 2100 ft
Mostly cloudy 6500 ft
Mostly cloudy 11000 ft
2018/06/19 07:53 KMHT 190753Z 33006KT 10SM FEW021 BKN065 BKN110 24/21 A2963 RMK AO2 RAB11E31 SLP039 P0002 T02390211 $
KORE - Orange, Massachusetts, USA
Distance from station: S 56mi, 90km
Updated: 3:52am
Light rain, Mostly cloudy
Light rain, Mostly cloudy
 Wind from WNW
Wind: WNW 8 mph , 13 km/h
Temperature: 73°F , 23°C
Dew Point: 72°F , 22°C
Humidity: 94%
Barometer: 29.68 inHg , 1005.1 hPa
Summary: Light rain
Clouds: Mostly cloudy
Visibility: 10 miles , 16 km
Cloud details: Partly cloudy 2000 ft
Partly cloudy 2700 ft
Mostly cloudy 3200 ft
2018/06/19 07:52 KORE 190752Z AUTO 29007KT 10SM -RA SCT020 SCT027 BKN032 23/22 A2968 RMK AO2 RAB47 SLP047 P0000 T02280222
 
KMPV - Montpelier/Barre, Vermont, USA
Distance from station: N 58mi, 93km
Updated: 3:51am
Clear
Clear
 Wind from NW
Wind: NW 7 mph , 11 km/h
Temperature: 63°F , 17°C
Dew Point: 63°F , 17°C
Humidity: 100%
Barometer: 29.78 inHg , 1008.5 hPa
Clouds: Clear
Visibility: 10 miles , 16 km
2018/06/19 07:51 KMPV 190751Z AUTO 32006KT 10SM CLR 17/17 A2978 RMK AO2 SLP081 T01670167
KASH - Nashua/Boire Fld, New Hampshire, USA
Distance from station: SE 59mi, 95km
Updated: 4:06am
Overcast
Overcast
 Wind from NNW
Wind: NNW 10 mph , 17 km/h, Gust: 21 mph , 33 km/h
Temperature: 75°F , 24°C
Dew Point: 70°F , 21°C
Humidity: 83%
Barometer: 29.65 inHg , 1004.1 hPa
Clouds: Overcast
Visibility: 10 miles , 16 km
Cloud details: Few Clouds 2200 ft
Mostly cloudy 5500 ft
Overcast 12000 ft
2018/06/19 08:06 KASH 190806Z AUTO 33009G18KT 10SM FEW022 BKN055 OVC120 24/21 A2965 RMK AO2
KAQW - North Adams, Massachusetts, USA
Distance from station: SW 62mi, 99km
Updated: 3:52am
Overcast
Overcast
 Wind from W
Wind: W 7 mph , 11 km/h
Temperature: 70°F , 21°C
Dew Point: 66°F , 19°C
Humidity: 88%
Barometer: 29.72 inHg , 1006.4 hPa
Clouds: Overcast
Cloud details: Few Clouds 1700 ft
Mostly cloudy 3100 ft
Overcast 4900 ft
2018/06/19 07:52 KAQW 190752Z AUTO 26006KT FEW017 BKN031 OVC049 21/19 A2972 RMK AO2 RAB18E48 SLP060 P0002 T02060189 $
 
KGFL - Glens Falls, New York, USA
Distance from station: W 63mi, 101km
Updated: 3:53am
Overcast
Overcast
 Wind from NE
Wind: NE 5 mph , 7 km/h
Temperature: 70°F , 21°C
Dew Point: 64°F , 18°C
Humidity: 83%
Barometer: 29.73 inHg , 1006.8 hPa
Clouds: Overcast
Visibility: 10 miles , 16 km
Cloud details: Overcast 2800 ft
2018/06/19 07:53 KGFL 190753Z AUTO 05004KT 10SM OVC028 21/18 A2973 RMK AO2 SLP064 T02060183
KFIT - Fitchburg, Massachusetts, USA
Distance from station: SSE 65mi, 105km
Updated: 3:52am
Few Clouds
Few Clouds
 Wind from varies
Wind: varies 7 mph , 11 km/h
Temperature: 73°F , 23°C
Dew Point: 72°F , 22°C
Humidity: 94%
Barometer: 29.65 inHg , 1004.1 hPa
Clouds: Few Clouds
Visibility: 10 miles , 16 km
Cloud details: Few Clouds 3900 ft
2018/06/19 07:52 KFIT 190752Z AUTO VRB06KT 10SM FEW039 23/22 A2965 RMK AO2 SLP037 T02330222
KDAW - Rochester, New Hampshire, USA
Distance from station: E 73mi, 118km
Updated: 3:51am
Overcast
Overcast
 Wind from NW
Wind: NW 13 mph , 20 km/h
Temperature: 73°F , 23°C
Dew Point: 70°F , 21°C
Humidity: 89%
Barometer: 29.61 inHg , 1002.7 hPa
Clouds: Overcast
Visibility: 10 miles , 16 km
Cloud details: Partly cloudy 2800 ft
Overcast 8500 ft
2018/06/19 07:51 KDAW 190751Z AUTO 31011KT 10SM SCT028 OVC085 23/21 A2961 RMK AO2 RAB00E10 SLP022 P0000 T02280206 $
 
K1V4 - St. Johnsbury, Vermont, USA
Distance from station: NNE 74mi, 119km
Updated: 3:54am

 
Temperature: 63°F , 17°C
Dew Point: 63°F , 17°C
Humidity: 100%
Barometer: 29.70 inHg , 1005.8 hPa
2018/06/19 07:54 K1V4 190754Z AUTO 17/17 A2970 RMK AO1 SLP049 T01720167
KLWM - Lawrence, Massachusetts, USA
Distance from station: SE 77mi, 124km
Updated: 3:54am
Light rain, Overcast
Light rain, Overcast
 Wind from W
Wind: W 8 mph , 13 km/h
Temperature: 79°F , 26°C
Dew Point: 70°F , 21°C
Humidity: 74%
Barometer: 29.63 inHg , 1003.4 hPa
Summary: Light rain
Clouds: Overcast
Visibility: 10 miles , 16 km
Cloud details: Mostly cloudy 3100 ft
Mostly cloudy 5500 ft
Overcast 10000 ft
2018/06/19 07:54 KLWM 190754Z AUTO 26007KT 10SM -RA BKN031 BKN055 OVC100 26/21 A2963 RMK AO2 RAE0658B45 SLP033 P0000 T02560211

free counter page views since 4/29/2009